ムンバイ の空港の天気 - METARとTAF

チャットラパティー・シヴァージー国際空港 ( VABB / BOM ) - インド ムンバイ
飛行場実況気象(Metar)
観測時間11/27 13:30 IST (11/27 08:00 UTC)
風向・風速西南西 4m/s
視程2500m
天気現象
少しの雲 雲底高度 760m
気温32℃
湿度46%
気圧1008hPa
METARVABB 270800Z 25008KT 2500 FU FEW025 32/19 Q1008 BECMG 3000 FU
過去の天気等 Google飛行場航空写真 Wunderground天気予報

過去48時間のMETAR

飛行場予報(TAF)
発表時間: 11/27 10:30 IST (11/27 05:00 UTC)
予報対象時間: 27日11時 IST ~ 27日20時 IST
風向・風速東北東 2m/s
視程2500m
天気現象煙霧 煙
少しの雲 雲底高度 3050m
27日12時 IST ~ 27日14時 IST に徐々に
風向・風速北西 3m/s
27日18時 IST ~ 27日20時 IST に徐々に
視程2000m
天気現象
TAF VABB 270500Z 2706/2715 06003KT 2500 HZ FU FEW100
BECMG 2707/2709 32005KT
BECMG 2713/2715 2000 FU